createdAt,value
2022-12-11T00:00:55.402Z,37.80
2022-12-11T00:03:41.767Z,36.20
2022-12-11T00:06:12.784Z,36.60
2022-12-11T00:08:40.830Z,35.90
2022-12-11T00:11:16.774Z,41.67
2022-12-11T00:13:44.888Z,40.67
2022-12-11T00:16:12.635Z,37.27
2022-12-11T00:18:40.769Z,34.70
2022-12-11T00:21:13.119Z,30.60
2022-12-11T00:23:41.812Z,33.50
2022-12-11T00:26:14.701Z,32.55
2022-12-11T00:28:44.603Z,31.10
2022-12-11T00:31:18.700Z,35.50
2022-12-11T00:33:49.199Z,28.57
2022-12-11T00:36:24.336Z,29.98
2022-12-11T00:38:53.231Z,30.27
2022-12-11T00:41:21.654Z,30.98
2022-12-11T00:43:49.276Z,27.23
2022-12-11T00:46:16.614Z,29.42
2022-12-11T00:48:44.210Z,27.10
2022-12-11T00:51:11.530Z,26.15
2022-12-11T00:53:39.754Z,25.00
2022-12-11T00:56:16.799Z,24.63
2022-12-11T00:58:46.093Z,27.45
2022-12-11T01:01:22.319Z,25.77
2022-12-11T01:03:51.643Z,26.73
2022-12-11T01:06:23.882Z,27.60
2022-12-11T01:09:10.846Z,24.23
2022-12-11T01:11:38.637Z,30.55
2022-12-11T01:14:06.806Z,28.98
2022-12-11T01:16:34.337Z,31.05
2022-12-11T01:19:01.916Z,24.98
2022-12-11T01:21:29.790Z,24.35
2022-12-11T01:23:57.316Z,24.95
2022-12-11T01:26:24.628Z,23.95
2022-12-11T01:28:52.811Z,25.27
2022-12-11T01:31:22.349Z,29.80
2022-12-11T01:33:49.987Z,27.52
2022-12-11T01:36:21.268Z,27.58
2022-12-11T01:38:49.949Z,28.15
2022-12-11T01:41:21.405Z,32.15
2022-12-11T01:44:15.758Z,30.05
2022-12-11T01:46:43.907Z,26.98
2022-12-11T01:49:17.533Z,29.25
2022-12-11T01:52:25.447Z,29.88
2022-12-11T01:54:53.072Z,32.15
2022-12-11T01:57:20.436Z,31.27
2022-12-11T01:59:48.229Z,28.75
2022-12-11T02:02:30.227Z,32.45
2022-12-11T02:04:58.049Z,36.88
2022-12-11T02:07:25.373Z,32.83
2022-12-11T02:09:53.102Z,30.65
2022-12-11T02:12:37.603Z,33.92
2022-12-11T02:15:32.625Z,29.60
2022-12-11T02:18:27.832Z,35.30
2022-12-11T02:21:18.616Z,30.42
2022-12-11T02:24:19.801Z,29.77
2022-12-11T02:27:14.889Z,34.17
2022-12-11T02:30:04.407Z,35.35
2022-12-11T02:32:52.158Z,32.90
2022-12-11T02:35:24.469Z,31.90
2022-12-11T02:38:01.961Z,39.88
2022-12-11T02:40:35.415Z,38.60
2022-12-11T02:43:09.059Z,37.30
2022-12-11T02:45:38.412Z,41.35
2022-12-11T02:48:10.033Z,34.42
2022-12-11T02:50:45.181Z,35.47
2022-12-11T02:53:18.760Z,37.28
2022-12-11T02:55:50.046Z,43.53
2022-12-11T02:58:31.422Z,47.13
2022-12-11T03:00:58.877Z,42.10
2022-12-11T03:03:29.498Z,38.67
2022-12-11T03:05:57.255Z,34.88
2022-12-11T03:08:24.935Z,33.75
2022-12-11T03:10:52.220Z,34.38
2022-12-11T03:13:22.811Z,34.28
2022-12-11T03:16:34.734Z,33.80
2022-12-11T03:19:16.563Z,31.70
2022-12-11T03:22:12.345Z,34.47
2022-12-11T03:25:02.843Z,32.58
2022-12-11T03:27:35.783Z,35.42
2022-12-11T03:30:11.706Z,31.45
2022-12-11T03:32:50.406Z,35.72
2022-12-11T03:35:25.709Z,41.55
2022-12-11T03:37:57.513Z,41.15
2022-12-11T03:40:27.947Z,41.47
2022-12-11T03:42:58.675Z,43.20
2022-12-11T03:45:29.862Z,42.42
2022-12-11T03:48:02.178Z,47.97
2022-12-11T03:50:34.806Z,48.35
2022-12-11T03:53:04.827Z,43.78
2022-12-11T03:55:36.326Z,45.17
2022-12-11T03:58:03.707Z,48.92
2022-12-11T04:00:31.698Z,43.20
2022-12-11T04:03:14.827Z,48.60
2022-12-11T04:05:49.658Z,52.80
2022-12-11T04:08:18.965Z,45.97
2022-12-11T04:10:47.362Z,49.25
2022-12-11T04:13:14.861Z,46.60
2022-12-11T04:15:42.430Z,44.03
2022-12-11T04:18:28.983Z,48.92
2022-12-11T04:21:15.770Z,46.00
2022-12-11T04:24:01.526Z,45.72
2022-12-11T04:26:29.123Z,38.30
2022-12-11T04:28:56.420Z,42.03
2022-12-11T04:31:24.207Z,46.33
2022-12-11T04:33:51.569Z,43.88
2022-12-11T04:36:19.145Z,43.22
2022-12-11T04:38:46.351Z,43.58
2022-12-11T04:41:16.297Z,44.97
2022-12-11T04:43:47.231Z,54.80
2022-12-11T04:46:19.660Z,61.25
2022-12-11T04:48:51.202Z,57.22
2022-12-11T04:51:21.489Z,68.63
2022-12-11T04:53:48.751Z,76.45
2022-12-11T04:56:17.279Z,53.40
2022-12-11T04:58:47.265Z,53.97
2022-12-11T05:01:22.660Z,44.63
2022-12-11T05:03:50.605Z,40.47
2022-12-11T05:06:18.204Z,35.27
2022-12-11T05:08:45.898Z,40.57
2022-12-11T05:11:15.931Z,39.38
2022-12-11T05:13:44.281Z,42.13
2022-12-11T05:16:16.096Z,45.70
2022-12-11T05:18:43.946Z,40.08
2022-12-11T05:21:15.061Z,43.70
2022-12-11T05:23:42.847Z,41.92
2022-12-11T05:26:19.265Z,45.60
2022-12-11T05:28:50.944Z,44.67
2022-12-11T05:31:22.391Z,42.50
2022-12-11T05:33:50.885Z,46.28
2022-12-11T05:36:23.948Z,50.95
2022-12-11T05:38:52.887Z,53.92
2022-12-11T05:41:23.939Z,39.08
2022-12-11T05:43:51.361Z,43.10
2022-12-11T05:46:24.825Z,41.20
2022-12-11T05:48:58.112Z,38.38
2022-12-11T05:51:27.021Z,32.20
2022-12-11T05:53:56.253Z,39.03
2022-12-11T05:56:31.743Z,35.40
2022-12-11T05:59:01.476Z,33.88
2022-12-11T06:01:35.260Z,33.97
2022-12-11T06:04:04.295Z,35.55
2022-12-11T06:06:31.970Z,33.80
2022-12-11T06:09:00.855Z,31.25
2022-12-11T06:11:32.031Z,28.67
2022-12-11T06:14:01.440Z,33.07
2022-12-11T06:16:29.037Z,31.13
2022-12-11T06:18:58.424Z,38.97
2022-12-11T06:21:33.854Z,35.25
2022-12-11T06:24:04.177Z,46.28
2022-12-11T06:26:32.289Z,31.43
2022-12-11T06:28:59.801Z,43.15
2022-12-11T06:31:27.719Z,34.55
2022-12-11T06:33:55.602Z,34.92
2022-12-11T06:36:25.226Z,39.78
2022-12-11T06:38:53.175Z,36.83
2022-12-11T06:41:20.666Z,33.53
2022-12-11T06:43:47.937Z,35.03
2022-12-11T06:46:19.773Z,45.83
2022-12-11T06:48:50.652Z,41.13
2022-12-11T06:51:22.717Z,38.83
2022-12-11T06:53:55.269Z,39.50
2022-12-11T06:56:24.316Z,40.78
2022-12-11T06:58:52.414Z,38.33
2022-12-11T07:01:24.530Z,37.30
2022-12-11T07:04:00.273Z,34.35
2022-12-11T07:06:29.064Z,39.40
2022-12-11T07:08:57.223Z,38.30
2022-12-11T07:11:24.800Z,41.58
2022-12-11T07:13:52.335Z,38.15
2022-12-11T07:16:20.183Z,35.83
2022-12-11T07:18:50.919Z,37.93
2022-12-11T07:21:20.832Z,37.22
2022-12-11T07:23:49.700Z,35.73
2022-12-11T07:26:20.582Z,34.27
2022-12-11T07:28:49.016Z,29.17
2022-12-11T07:31:23.805Z,26.80
2022-12-11T07:33:57.158Z,26.40
2022-12-11T07:36:25.689Z,26.17
2022-12-11T07:38:53.669Z,26.63
2022-12-11T07:41:22.439Z,27.33
2022-12-11T07:43:49.712Z,27.73
2022-12-11T07:46:21.931Z,26.63
2022-12-11T07:48:49.832Z,28.67
2022-12-11T07:51:26.627Z,24.60
2022-12-11T07:54:04.965Z,26.48
2022-12-11T07:56:33.425Z,26.30
2022-12-11T07:59:03.556Z,31.00
2022-12-11T08:01:35.741Z,29.97
2022-12-11T08:04:05.458Z,28.17
2022-12-11T08:06:36.333Z,27.67
2022-12-11T08:09:07.785Z,30.15
2022-12-11T08:11:36.217Z,31.50
2022-12-11T08:14:05.414Z,31.23
2022-12-11T08:16:33.492Z,34.70
2022-12-11T08:19:00.960Z,38.00
2022-12-11T08:21:29.483Z,36.17
2022-12-11T08:23:56.847Z,41.77
2022-12-11T08:26:31.555Z,36.10
2022-12-11T08:29:00.945Z,33.23
2022-12-11T08:31:29.889Z,32.03
2022-12-11T08:33:57.890Z,31.23
2022-12-11T08:36:26.188Z,39.28
2022-12-11T08:38:56.473Z,37.97
2022-12-11T08:41:28.569Z,39.03
2022-12-11T08:43:57.700Z,38.43
2022-12-11T08:46:29.541Z,34.87
2022-12-11T08:48:57.951Z,42.17
2022-12-11T08:51:28.414Z,41.90
2022-12-11T08:53:59.421Z,36.77
2022-12-11T08:56:28.646Z,37.03
2022-12-11T08:58:56.263Z,36.13
2022-12-11T09:01:26.805Z,38.37
2022-12-11T09:03:56.803Z,33.60
2022-12-11T09:06:28.234Z,34.97
2022-12-11T09:08:58.683Z,33.67
2022-12-11T09:11:30.784Z,36.60
2022-12-11T09:14:02.238Z,41.07
2022-12-11T09:16:37.920Z,37.95
2022-12-11T09:19:08.602Z,34.40
2022-12-11T09:21:36.299Z,33.13
2022-12-11T09:24:03.940Z,35.08
2022-12-11T09:26:31.762Z,33.40
2022-12-11T09:28:59.284Z,33.03
2022-12-11T09:31:33.701Z,30.15
2022-12-11T09:34:08.557Z,27.77
2022-12-11T09:36:38.930Z,33.67
2022-12-11T09:39:09.079Z,35.05
2022-12-11T09:42:22.620Z,34.83
2022-12-11T09:44:59.711Z,38.35
2022-12-11T09:47:45.726Z,40.73
2022-12-11T09:50:48.097Z,40.63
2022-12-11T09:53:34.088Z,37.57
2022-12-11T09:56:33.733Z,40.33
2022-12-11T09:59:17.086Z,36.80
2022-12-11T10:02:11.601Z,31.02
2022-12-11T10:05:18.904Z,30.10
2022-12-11T10:08:23.874Z,28.97
2022-12-11T10:10:57.225Z,26.52
2022-12-11T10:13:42.520Z,24.25
2022-12-11T10:16:37.615Z,32.22
2022-12-11T10:19:05.996Z,33.13
2022-12-11T10:21:41.906Z,33.53
2022-12-11T10:27:38.655Z,35.78
2022-12-11T10:30:15.955Z,38.45
2022-12-11T10:33:06.917Z,37.97
2022-12-11T10:35:49.845Z,38.42
2022-12-11T10:38:23.004Z,43.92
2022-12-11T10:41:00.717Z,46.10
2022-12-11T10:43:39.936Z,45.17
2022-12-11T10:46:21.190Z,44.10
2022-12-11T10:48:57.769Z,47.23
2022-12-11T10:51:36.541Z,44.38
2022-12-11T10:54:27.737Z,46.38
2022-12-11T10:56:56.445Z,45.08
2022-12-11T10:59:48.122Z,41.30
2022-12-11T11:02:40.443Z,45.60
2022-12-11T11:05:17.165Z,54.20
2022-12-11T11:07:44.558Z,51.93
2022-12-11T11:10:12.127Z,47.30
2022-12-11T11:12:50.612Z,59.05
2022-12-11T11:15:29.082Z,52.97
2022-12-11T11:18:25.187Z,55.88
2022-12-11T11:20:53.683Z,49.93
2022-12-11T11:23:23.025Z,60.05
2022-12-11T11:26:11.819Z,54.97
2022-12-11T11:28:51.223Z,55.50
2022-12-11T11:31:23.130Z,64.88
2022-12-11T11:33:58.897Z,55.37
2022-12-11T11:36:33.996Z,56.90
2022-12-11T11:39:25.997Z,60.03
2022-12-11T11:42:15.218Z,51.13
2022-12-11T11:45:16.982Z,41.83
2022-12-11T11:48:28.685Z,42.50
2022-12-11T11:50:58.420Z,42.00
2022-12-11T11:53:40.702Z,50.13
2022-12-11T11:56:26.897Z,44.75
2022-12-11T11:59:03.264Z,43.95
2022-12-11T12:01:31.447Z,48.97
2022-12-11T12:04:01.522Z,49.88
2022-12-11T12:07:23.528Z,48.22
2022-12-11T12:10:15.622Z,47.73
2022-12-11T12:13:30.051Z,51.97
2022-12-11T12:16:02.061Z,52.42
2022-12-11T12:18:59.757Z,45.65
2022-12-11T12:21:39.075Z,41.17
2022-12-11T12:24:41.344Z,47.60
2022-12-11T12:27:55.785Z,47.78
2022-12-11T12:30:23.996Z,50.10
2022-12-11T12:33:38.465Z,51.73
2022-12-11T12:36:20.946Z,49.47
2022-12-11T12:38:54.022Z,44.45
2022-12-11T12:42:05.651Z,48.30
2022-12-11T12:45:01.675Z,48.73
2022-12-11T12:47:34.126Z,47.43
2022-12-11T12:50:10.388Z,44.03
2022-12-11T12:52:40.928Z,44.90
2022-12-11T12:55:26.068Z,42.87
2022-12-11T12:58:01.464Z,46.23
2022-12-11T13:00:49.265Z,43.15
2022-12-11T13:03:30.437Z,38.80
2022-12-11T13:06:03.523Z,38.47
2022-12-11T13:08:50.434Z,37.70
2022-12-11T13:11:21.454Z,41.03
2022-12-11T13:14:27.276Z,48.17
2022-12-11T13:17:21.398Z,47.47
2022-12-11T13:19:53.107Z,42.70
2022-12-11T13:22:24.905Z,43.73
2022-12-11T13:24:52.091Z,51.60
2022-12-11T13:27:40.254Z,45.88
2022-12-11T13:30:22.532Z,44.80
2022-12-11T13:33:07.788Z,46.07
2022-12-11T13:35:35.904Z,51.03
2022-12-11T13:38:20.857Z,48.57
2022-12-11T13:40:55.821Z,41.93
2022-12-11T13:43:28.690Z,41.60
2022-12-11T13:46:02.959Z,39.70
2022-12-11T13:49:22.188Z,45.57
2022-12-11T13:52:01.290Z,48.70
2022-12-11T13:54:31.889Z,49.13
2022-12-11T13:57:18.045Z,46.93
2022-12-11T13:59:53.421Z,39.47
2022-12-11T14:02:39.922Z,44.03
2022-12-11T14:05:11.590Z,40.87
2022-12-11T14:07:46.710Z,48.17
2022-12-11T14:10:20.917Z,46.13
2022-12-11T14:13:05.879Z,44.13
2022-12-11T14:15:36.360Z,46.13
2022-12-11T14:18:05.652Z,43.90
2022-12-11T14:20:34.591Z,43.47
2022-12-11T14:23:18.302Z,43.57
2022-12-11T14:26:17.390Z,42.43
2022-12-11T14:28:45.266Z,44.63
2022-12-11T14:31:41.097Z,45.97
2022-12-11T14:34:45.475Z,46.23
2022-12-11T14:37:17.623Z,50.57
2022-12-11T14:40:17.585Z,66.40
2022-12-11T14:43:00.344Z,54.83
2022-12-11T14:45:45.216Z,61.17
2022-12-11T14:48:34.674Z,65.33
2022-12-11T14:51:10.876Z,71.50
2022-12-11T14:53:46.250Z,54.17
2022-12-11T14:56:27.840Z,48.17
2022-12-11T14:59:31.450Z,47.23
2022-12-11T15:02:04.701Z,59.63
2022-12-11T15:04:33.573Z,76.27
2022-12-11T15:07:01.088Z,85.23
2022-12-11T15:09:38.602Z,74.30
2022-12-11T15:12:16.832Z,81.27
2022-12-11T15:14:52.227Z,85.40
2022-12-11T15:17:21.327Z,83.97
2022-12-11T15:20:23.723Z,58.20
2022-12-11T15:22:51.716Z,66.93
2022-12-11T15:25:30.635Z,54.00
2022-12-11T15:28:01.225Z,45.70
2022-12-11T15:30:35.182Z,44.97
2022-12-11T15:33:11.240Z,43.57
2022-12-11T15:35:52.365Z,42.60
2022-12-11T15:38:34.436Z,43.60
2022-12-11T15:41:04.373Z,42.77
2022-12-11T15:43:36.448Z,43.70
2022-12-11T15:46:06.104Z,46.13
2022-12-11T15:48:34.248Z,46.40
2022-12-11T15:51:01.787Z,55.07
2022-12-11T15:53:29.186Z,51.20
2022-12-11T15:55:59.628Z,57.77
2022-12-11T15:58:27.504Z,50.80
2022-12-11T16:00:55.695Z,52.17
2022-12-11T16:03:24.373Z,51.57
2022-12-11T16:05:53.695Z,55.20
2022-12-11T16:08:24.570Z,44.53
2022-12-11T16:10:54.901Z,46.93
2022-12-11T16:13:23.352Z,40.83
2022-12-11T16:15:52.256Z,46.77
2022-12-11T16:18:23.677Z,43.17
2022-12-11T16:20:52.521Z,46.90
2022-12-11T16:23:20.818Z,43.87
2022-12-11T16:25:49.441Z,43.40
2022-12-11T16:28:20.947Z,45.10
2022-12-11T16:30:49.722Z,42.27
2022-12-11T16:33:17.452Z,43.70
2022-12-11T16:35:45.670Z,45.10
2022-12-11T16:38:13.637Z,46.90
2022-12-11T16:40:41.656Z,47.50
2022-12-11T16:43:08.843Z,43.13
2022-12-11T16:45:37.470Z,40.33
2022-12-11T16:48:05.768Z,44.23
2022-12-11T16:50:33.332Z,44.17
2022-12-11T16:53:00.590Z,46.23
2022-12-11T16:55:28.108Z,47.47
2022-12-11T16:57:55.372Z,52.87
2022-12-11T17:00:22.955Z,45.53
2022-12-11T17:02:50.911Z,43.93
2022-12-11T17:05:18.717Z,43.03
2022-12-11T17:07:45.980Z,48.43
2022-12-11T17:10:13.611Z,48.70
2022-12-11T17:12:40.875Z,51.13
2022-12-11T17:15:09.056Z,47.33
2022-12-11T17:17:36.473Z,48.60
2022-12-11T17:20:06.406Z,48.97
2022-12-11T17:22:33.624Z,45.67
2022-12-11T17:25:01.177Z,46.50
2022-12-11T17:27:28.381Z,50.67
2022-12-11T17:29:55.941Z,52.50
2022-12-11T17:32:23.221Z,57.10
2022-12-11T17:34:50.963Z,56.33
2022-12-11T17:37:18.871Z,56.30
2022-12-11T17:39:47.611Z,60.53
2022-12-11T17:42:14.895Z,58.13
2022-12-11T17:44:42.484Z,66.17
2022-12-11T17:47:12.044Z,70.00
2022-12-11T17:49:40.529Z,79.80
2022-12-11T17:52:08.341Z,71.97
2022-12-11T17:54:35.879Z,67.03
2022-12-11T17:57:03.281Z,61.07
2022-12-11T17:59:30.851Z,59.47
2022-12-11T18:01:58.196Z,53.63
2022-12-11T18:04:26.045Z,49.87
2022-12-11T18:06:53.341Z,48.77
2022-12-11T18:09:20.822Z,48.67
2022-12-11T18:11:48.348Z,48.40
2022-12-11T18:14:17.627Z,49.67
2022-12-11T18:16:45.158Z,46.83
2022-12-11T18:19:13.917Z,52.30
2022-12-11T18:21:44.216Z,53.90
2022-12-11T18:24:12.301Z,63.40
2022-12-11T18:26:39.551Z,52.80
2022-12-11T18:29:07.065Z,59.87
2022-12-11T18:31:37.559Z,54.63
2022-12-11T18:34:10.821Z,62.37
2022-12-11T18:36:38.334Z,57.60
2022-12-11T18:39:05.893Z,48.60
2022-12-11T18:41:33.164Z,50.43
2022-12-11T18:44:08.009Z,65.80
2022-12-11T18:46:37.631Z,56.63
2022-12-11T18:49:06.471Z,48.33
2022-12-11T18:51:34.214Z,45.43
2022-12-11T18:54:01.782Z,45.60
2022-12-11T18:56:29.070Z,47.67
2022-12-11T18:58:56.615Z,50.67
2022-12-11T19:01:29.088Z,44.30
2022-12-11T19:04:04.161Z,43.10
2022-12-11T19:06:35.496Z,44.47
2022-12-11T19:09:05.793Z,51.97
2022-12-11T19:11:34.987Z,48.33
2022-12-11T19:14:05.645Z,46.13
2022-12-11T19:16:40.964Z,44.20
2022-12-11T19:19:16.807Z,43.73
2022-12-11T19:21:45.225Z,42.87
2022-12-11T19:24:17.233Z,44.77
2022-12-11T19:26:44.963Z,42.83
2022-12-11T19:29:28.755Z,42.83
2022-12-11T19:31:56.480Z,41.03
2022-12-11T19:34:25.047Z,44.53
2022-12-11T19:36:52.359Z,43.53
2022-12-11T19:39:20.504Z,45.07
2022-12-11T19:41:49.081Z,47.87
2022-12-11T19:44:16.549Z,40.40
2022-12-11T19:46:43.923Z,44.47
2022-12-11T19:49:12.427Z,42.07
2022-12-11T19:51:41.919Z,39.17
2022-12-11T19:54:15.017Z,39.80
2022-12-11T19:56:43.062Z,42.13
2022-12-11T19:59:16.706Z,38.93
2022-12-11T20:01:48.256Z,37.33
2022-12-11T20:04:17.836Z,41.10
2022-12-11T20:06:47.306Z,42.83
2022-12-11T20:09:15.827Z,45.20
2022-12-11T20:11:45.624Z,51.30
2022-12-11T20:14:24.403Z,48.40
2022-12-11T20:19:41.721Z,44.23
2022-12-11T20:22:09.618Z,41.93
2022-12-11T20:24:37.603Z,42.47
2022-12-11T20:27:05.798Z,47.10
2022-12-11T20:29:33.476Z,51.90
2022-12-11T20:32:00.754Z,46.20
2022-12-11T20:34:28.482Z,39.50
2022-12-11T20:36:56.432Z,42.77
2022-12-11T20:39:25.290Z,38.87
2022-12-11T20:41:52.521Z,37.53
2022-12-11T20:44:20.260Z,39.27
2022-12-11T20:46:47.783Z,45.60
2022-12-11T20:49:15.634Z,40.97
2022-12-11T20:51:42.968Z,37.60
2022-12-11T20:54:10.529Z,41.53
2022-12-11T20:56:38.578Z,40.27
2022-12-11T20:59:06.931Z,43.17
2022-12-11T21:01:35.139Z,41.50
2022-12-11T21:04:03.218Z,35.70
2022-12-11T21:06:36.587Z,45.17
2022-12-11T21:09:14.494Z,41.60
2022-12-11T21:11:42.052Z,45.43
2022-12-11T21:14:09.898Z,49.10
2022-12-11T21:16:38.247Z,54.70
2022-12-11T21:19:06.904Z,62.70
2022-12-11T21:21:39.831Z,56.07
2022-12-11T21:24:14.436Z,58.30
2022-12-11T21:26:41.746Z,57.40
2022-12-11T21:29:09.337Z,50.10
2022-12-11T21:31:37.787Z,52.70
2022-12-11T21:34:06.424Z,50.57
2022-12-11T21:36:34.573Z,49.30
2022-12-11T21:39:04.451Z,45.77
2022-12-11T21:41:31.970Z,46.10
2022-12-11T21:45:26.033Z,43.37
2022-12-11T21:46:47.593Z,43.77
2022-12-11T21:49:15.202Z,45.00
2022-12-11T21:51:46.903Z,43.53
2022-12-11T21:54:18.883Z,49.90
2022-12-11T21:56:47.337Z,50.70
2022-12-11T21:59:15.047Z,53.73
2022-12-11T22:01:46.269Z,51.00
2022-12-11T22:04:15.550Z,47.77
2022-12-11T22:06:43.737Z,46.20
2022-12-11T22:09:13.045Z,53.93
2022-12-11T22:11:42.437Z,55.27
2022-12-11T22:14:17.071Z,46.27
2022-12-11T22:16:45.215Z,52.27
2022-12-11T22:19:13.602Z,51.97
2022-12-11T22:21:41.015Z,51.33
2022-12-11T22:24:09.088Z,52.57
2022-12-11T22:26:36.408Z,45.63
2022-12-11T22:29:03.955Z,45.63
2022-12-11T22:31:31.568Z,42.97
2022-12-11T22:33:59.152Z,45.50
2022-12-11T22:36:27.359Z,38.70
2022-12-11T22:38:55.417Z,38.23
2022-12-11T22:41:32.018Z,41.63
2022-12-11T22:44:00.232Z,41.63
2022-12-11T22:46:31.008Z,44.47
2022-12-11T22:48:59.613Z,37.77
2022-12-11T22:51:26.829Z,39.10
2022-12-11T22:53:54.320Z,40.20
2022-12-11T22:56:21.737Z,36.73
2022-12-11T22:58:49.242Z,38.80
2022-12-11T23:01:23.256Z,40.27
2022-12-11T23:03:51.616Z,37.77
2022-12-11T23:06:22.690Z,36.40
2022-12-11T23:08:50.388Z,40.70
2022-12-11T23:11:26.371Z,40.33
2022-12-11T23:13:55.483Z,39.97
2022-12-11T23:16:26.287Z,43.40
2022-12-11T23:18:55.983Z,42.80
2022-12-11T23:21:23.791Z,43.50
2022-12-11T23:23:51.434Z,45.67
2022-12-11T23:26:20.763Z,42.67
2022-12-11T23:28:49.441Z,45.80
2022-12-11T23:31:18.178Z,45.23
2022-12-11T23:33:46.003Z,47.57
2022-12-11T23:36:13.715Z,46.83
2022-12-11T23:38:41.547Z,53.13
2022-12-11T23:41:12.671Z,51.57
2022-12-11T23:43:41.903Z,47.50
2022-12-11T23:46:16.611Z,51.03
2022-12-11T23:48:44.867Z,45.80
2022-12-11T23:51:16.070Z,47.50
2022-12-11T23:53:44.279Z,44.37
2022-12-11T23:56:23.680Z,46.07
2022-12-11T23:58:52.896Z,40.20
